Time;durP1;ratioP1;P1;durP2;ratioP2;P2;SDS_P1;SDS_P2;PMS_P1;PMS_P2;Temp;Humidity;BMP_temperature;BMP_pressure;BME280_temperature;BME280_humidity;BME280_pressure;Samples;Min_cycle;Max_cycle;Signal;HPM_P1;HPM_P2
2024/01/23 00:00:08;;;;;;;7.88;1.88;;;;;;;;;;5013186;28;20034;-42
2024/01/23 00:02:35;;;;;;;13.23;1.75;;;;;;;;;;5013086;28;20076;-42
2024/01/23 00:05:02;;;;;;;10.73;1.77;;;;;;;;;;5013182;28;20042;-42
2024/01/23 00:07:29;;;;;;;9.73;1.70;;;;;;;;;;5008398;28;20026;-42
2024/01/23 00:09:56;;;;;;;7.53;1.50;;;;;;;;;;5012781;28;20026;-42
2024/01/23 00:12:23;;;;;;;9.82;1.70;;;;;;;;;;5012843;28;20033;-42
2024/01/23 00:14:50;;;;;;;7.68;1.48;;;;;;;;;;5012753;28;20032;-42
2024/01/23 00:17:17;;;;;;;9.95;1.45;;;;;;;;;;5012671;28;20045;-42
2024/01/23 00:19:44;;;;;;;4.57;1.30;;;;;;;;;;5018998;28;20053;-42
2024/01/23 00:22:11;;;;;;;9.35;1.70;;;;;;;;;;5032541;28;20026;-42
2024/01/23 00:24:38;;;;;;;10.38;1.73;;;;;;;;;;5032545;28;20041;-42
2024/01/23 00:27:05;;;;;;;7.07;1.45;;;;;;;;;;5032509;28;20112;-42
2024/01/23 00:29:34;;;;;;;8.30;1.63;;;;;;;;;;5032399;28;20032;-43
2024/01/23 00:32:05;;;;;;;8.15;1.90;;;;;;;;;;5027922;28;20033;-42
2024/01/23 00:34:32;;;;;;;23.88;2.60;;;;;;;;;;5033308;28;20029;-40
2024/01/23 00:36:59;;;;;;;15.55;3.00;;;;;;;;;;5037981;28;20033;-42
2024/01/23 00:39:26;;;;;;;21.88;2.58;;;;;;;;;;5035678;28;20086;-42
2024/01/23 00:41:53;;;;;;;21.27;3.10;;;;;;;;;;5032817;28;20036;-42
2024/01/23 00:44:20;;;;;;;13.73;2.58;;;;;;;;;;5033013;28;20479;-40
2024/01/23 00:46:47;;;;;;;19.23;2.53;;;;;;;;;;5037763;28;20029;-41
2024/01/23 00:49:14;;;;;;;18.90;2.70;;;;;;;;;;5035061;28;20075;-42
2024/01/23 00:51:41;;;;;;;12.45;2.35;;;;;;;;;;5036877;28;20029;-42
2024/01/23 00:54:08;;;;;;;16.95;1.92;;;;;;;;;;5030492;28;20033;-41
2024/01/23 00:56:35;;;;;;;21.00;2.47;;;;;;;;;;5027662;28;20033;-42
2024/01/23 00:59:02;;;;;;;13.27;1.80;;;;;;;;;;5031328;28;20029;-40
2024/01/23 01:01:29;;;;;;;15.82;2.20;;;;;;;;;;5027583;28;20072;-41
2024/01/23 01:03:56;;;;;;;19.77;2.17;;;;;;;;;;5032820;28;20031;-42
2024/01/23 01:06:23;;;;;;;17.70;2.15;;;;;;;;;;5038775;28;20043;-42
2024/01/23 01:08:50;;;;;;;28.25;2.63;;;;;;;;;;5029814;28;20029;-41
2024/01/23 01:11:17;;;;;;;25.83;2.58;;;;;;;;;;5032352;28;20488;-41
2024/01/23 01:13:44;;;;;;;16.92;2.40;;;;;;;;;;5040202;28;20021;-42
2024/01/23 01:16:11;;;;;;;14.52;2.75;;;;;;;;;;5040116;28;20033;-41
2024/01/23 01:18:40;;;;;;;22.40;3.28;;;;;;;;;;5038161;28;20032;-43
2024/01/23 01:21:07;;;;;;;18.00;2.85;;;;;;;;;;5037412;28;20626;-41
2024/01/23 01:23:35;;;;;;;20.88;3.53;;;;;;;;;;5041981;28;20494;-44
2024/01/23 01:26:02;;;;;;;26.55;3.45;;;;;;;;;;5037535;28;20032;-42
2024/01/23 01:28:29;;;;;;;20.40;3.17;;;;;;;;;;5042449;28;20029;-42
2024/01/23 01:30:56;;;;;;;19.27;2.90;;;;;;;;;;5040279;28;20032;-42
2024/01/23 01:33:23;;;;;;;17.55;2.75;;;;;;;;;;5042079;28;20037;-41
2024/01/23 01:35:52;;;;;;;26.75;3.20;;;;;;;;;;5041615;28;20498;-41
2024/01/23 01:38:19;;;;;;;21.50;3.13;;;;;;;;;;5037768;28;20039;-41
2024/01/23 01:40:46;;;;;;;29.27;3.63;;;;;;;;;;5030007;28;20025;-41
2024/01/23 01:43:25;;;;;;;20.58;3.42;;;;;;;;;;5026945;28;20062;-42
2024/01/23 01:46:12;;;;;;;26.80;3.75;;;;;;;;;;5029829;28;20120;-42
2024/01/23 01:48:39;;;;;;;21.85;3.65;;;;;;;;;;5027891;28;20112;-42
2024/01/23 01:51:07;;;;;;;18.40;3.03;;;;;;;;;;5024376;28;20030;-42
2024/01/23 01:53:34;;;;;;;22.63;2.72;;;;;;;;;;5029987;28;20065;-41
2024/01/23 01:56:03;;;;;;;17.00;2.88;;;;;;;;;;5024765;28;20045;-41
2024/01/23 01:58:32;;;;;;;13.10;2.30;;;;;;;;;;5028079;28;20029;-42
2024/01/23 02:01:00;;;;;;;12.52;2.10;;;;;;;;;;5024441;28;20042;-41
2024/01/23 02:03:28;;;;;;;19.92;2.30;;;;;;;;;;5030731;28;20053;-41
2024/01/23 02:06:03;;;;;;;16.52;2.58;;;;;;;;;;5029817;28;20061;-42
2024/01/23 02:08:30;;;;;;;19.45;2.78;;;;;;;;;;5026883;28;20096;-41
2024/01/23 02:10:57;;;;;;;16.70;2.47;;;;;;;;;;5024542;28;20048;-41
2024/01/23 02:13:25;;;;;;;17.58;2.80;;;;;;;;;;5031343;28;20051;-41
2024/01/23 02:15:52;;;;;;;19.23;2.33;;;;;;;;;;5027447;28;20048;-42
2024/01/23 02:18:19;;;;;;;24.02;2.58;;;;;;;;;;5030796;28;20025;-42
2024/01/23 02:20:46;;;;;;;22.02;2.83;;;;;;;;;;5030396;28;20122;-41
2024/01/23 02:23:16;;;;;;;21.27;2.70;;;;;;;;;;5033901;28;20056;-42
2024/01/23 02:25:44;;;;;;;26.90;2.65;;;;;;;;;;5025332;28;20056;-41
2024/01/23 02:28:12;;;;;;;17.27;2.28;;;;;;;;;;5031897;28;20061;-40
2024/01/23 02:30:39;;;;;;;9.60;2.25;;;;;;;;;;5037100;28;20104;-43
2024/01/23 02:33:06;;;;;;;22.25;2.70;;;;;;;;;;5032296;28;20044;-41
2024/01/23 02:35:34;;;;;;;13.57;2.53;;;;;;;;;;5034133;28;20112;-42
2024/01/23 02:38:01;;;;;;;19.50;2.50;;;;;;;;;;5032772;28;20691;-40
2024/01/23 02:40:28;;;;;;;16.27;2.58;;;;;;;;;;5030922;28;20620;-41
2024/01/23 02:42:55;;;;;;;9.45;2.45;;;;;;;;;;5030495;28;20076;-42
2024/01/23 02:45:22;;;;;;;16.65;2.65;;;;;;;;;;5032787;28;20479;-41
2024/01/23 02:47:49;;;;;;;16.55;2.60;;;;;;;;;;5033590;28;20537;-39
2024/01/23 02:50:17;;;;;;;13.52;1.90;;;;;;;;;;5032512;28;20061;-40
2024/01/23 02:52:44;;;;;;;9.88;2.55;;;;;;;;;;5033243;28;20032;-40
2024/01/23 02:55:14;;;;;;;13.80;2.00;;;;;;;;;;5029980;28;20043;-41
2024/01/23 02:57:41;;;;;;;19.38;2.45;;;;;;;;;;5032836;28;20029;-40
2024/01/23 03:00:08;;;;;;;13.93;2.08;;;;;;;;;;5033865;28;20075;-41
2024/01/23 03:02:35;;;;;;;12.82;2.10;;;;;;;;;;5031979;28;20120;-40
2024/01/23 03:05:03;;;;;;;16.10;1.92;;;;;;;;;;5033374;28;20030;-41
2024/01/23 03:07:30;;;;;;;9.43;2.13;;;;;;;;;;5029206;28;20033;-41
2024/01/23 03:09:57;;;;;;;11.35;2.00;;;;;;;;;;5033097;28;20075;-39
2024/01/23 03:12:26;;;;;;;13.82;1.60;;;;;;;;;;5024894;28;20037;-40
2024/01/23 03:14:53;;;;;;;8.07;1.70;;;;;;;;;;5033077;28;20068;-40
2024/01/23 03:17:20;;;;;;;14.10;2.17;;;;;;;;;;5033364;28;20049;-42
2024/01/23 03:19:47;;;;;;;10.13;1.80;;;;;;;;;;5033833;28;20072;-40
2024/01/23 03:22:14;;;;;;;11.60;2.25;;;;;;;;;;5032711;28;20384;-40
2024/01/23 03:24:44;;;;;;;14.30;1.80;;;;;;;;;;5032055;28;20090;-40
2024/01/23 03:27:11;;;;;;;14.10;2.25;;;;;;;;;;5032589;28;20490;-41
2024/01/23 03:29:40;;;;;;;11.30;1.92;;;;;;;;;;5032697;28;20033;-40
2024/01/23 03:32:08;;;;;;;13.60;2.25;;;;;;;;;;5028932;28;20071;-40
2024/01/23 03:34:35;;;;;;;9.50;1.88;;;;;;;;;;5032763;28;20038;-41
2024/01/23 03:37:02;;;;;;;19.75;2.83;;;;;;;;;;5020092;28;20124;-39
2024/01/23 03:39:29;;;;;;;15.98;2.22;;;;;;;;;;5033067;28;20549;-40
2024/01/23 03:41:57;;;;;;;16.25;1.90;;;;;;;;;;5031619;28;20029;-42
2024/01/23 03:44:27;;;;;;;10.73;2.00;;;;;;;;;;5027440;28;20383;-41
2024/01/23 03:46:54;;;;;;;15.40;2.60;;;;;;;;;;5029700;28;20034;-41
2024/01/23 03:49:22;;;;;;;25.35;2.95;;;;;;;;;;5030503;28;20029;-41
2024/01/23 03:51:49;;;;;;;23.05;2.92;;;;;;;;;;5035673;28;20033;-42
2024/01/23 03:54:16;;;;;;;16.05;2.40;;;;;;;;;;5038234;28;20043;-42
2024/01/23 03:56:44;;;;;;;11.18;2.08;;;;;;;;;;5037567;28;20382;-41
2024/01/23 03:59:11;;;;;;;11.40;2.03;;;;;;;;;;5034005;28;20033;-41
2024/01/23 04:01:38;;;;;;;11.45;1.73;;;;;;;;;;5034189;28;20036;-40
2024/01/23 04:04:05;;;;;;;12.82;2.35;;;;;;;;;;5033914;28;20383;-40
2024/01/23 04:06:33;;;;;;;10.23;2.30;;;;;;;;;;5032469;28;20025;-42
2024/01/23 04:09:01;;;;;;;11.18;2.10;;;;;;;;;;5034771;28;20040;-40
2024/01/23 04:11:29;;;;;;;11.90;1.92;;;;;;;;;;5034784;28;20051;-40
2024/01/23 04:13:56;;;;;;;12.57;2.08;;;;;;;;;;5036910;28;20048;-42
2024/01/23 04:16:23;;;;;;;10.00;2.10;;;;;;;;;;5037911;28;20124;-40
2024/01/23 04:18:54;;;;;;;15.98;2.28;;;;;;;;;;5034020;28;20037;-41
2024/01/23 04:21:22;;;;;;;12.75;2.00;;;;;;;;;;5039212;28;20029;-40
2024/01/23 04:23:49;;;;;;;10.27;1.75;;;;;;;;;;5041755;28;20041;-40
2024/01/23 04:26:18;;;;;;;12.18;2.30;;;;;;;;;;5041523;28;20039;-40
2024/01/23 04:28:46;;;;;;;12.45;1.80;;;;;;;;;;5041738;28;20041;-41
2024/01/23 04:31:13;;;;;;;10.80;1.70;;;;;;;;;;5030980;28;20045;-40
2024/01/23 04:33:40;;;;;;;9.02;1.80;;;;;;;;;;5030184;28;20033;-39
2024/01/23 04:36:07;;;;;;;14.20;2.10;;;;;;;;;;5031455;28;20029;-40
2024/01/23 04:38:34;;;;;;;10.77;2.13;;;;;;;;;;5030509;28;20444;-39
2024/01/23 04:41:01;;;;;;;11.63;2.35;;;;;;;;;;5031609;28;20032;-40
2024/01/23 04:43:28;;;;;;;13.60;2.30;;;;;;;;;;5027307;28;20029;-40
2024/01/23 04:45:55;;;;;;;11.20;1.73;;;;;;;;;;5031131;28;20079;-40
2024/01/23 04:48:22;;;;;;;12.63;2.53;;;;;;;;;;5031263;28;20844;-39
2024/01/23 04:50:49;;;;;;;9.52;2.00;;;;;;;;;;5030984;28;20491;-39
2024/01/23 04:53:16;;;;;;;12.30;1.83;;;;;;;;;;5031159;28;20487;-40
2024/01/23 04:55:43;;;;;;;11.32;2.00;;;;;;;;;;5025395;28;20049;-40
2024/01/23 04:58:10;;;;;;;10.63;2.35;;;;;;;;;;5031119;28;20025;-40
2024/01/23 05:00:37;;;;;;;8.93;2.08;;;;;;;;;;5030888;28;20483;-42
2024/01/23 05:03:04;;;;;;;12.50;1.95;;;;;;;;;;5028103;28;20030;-39
2024/01/23 05:05:31;;;;;;;12.57;2.35;;;;;;;;;;5030849;28;20026;-40
2024/01/23 05:07:58;;;;;;;14.70;2.05;;;;;;;;;;5020686;28;20487;-41
2024/01/23 05:10:25;;;;;;;12.30;2.22;;;;;;;;;;5012865;28;20033;-41
2024/01/23 05:12:53;;;;;;;13.20;2.50;;;;;;;;;;5031148;28;20029;-41
2024/01/23 05:15:19;;;;;;;14.05;2.20;;;;;;;;;;5027852;28;20462;-41
2024/01/23 05:17:46;;;;;;;14.40;1.90;;;;;;;;;;5030238;28;20403;-40
2024/01/23 05:20:13;;;;;;;7.53;1.95;;;;;;;;;;5026708;28;20064;-41
2024/01/23 05:22:40;;;;;;;12.15;2.25;;;;;;;;;;5030909;28;20049;-40
2024/01/23 05:25:08;;;;;;;14.00;2.33;;;;;;;;;;5030968;28;20026;-41
2024/01/23 05:27:35;;;;;;;11.20;2.20;;;;;;;;;;5030789;28;20116;-40
2024/01/23 05:30:05;;;;;;;10.70;2.03;;;;;;;;;;5029667;28;20502;-42
2024/01/23 05:32:32;;;;;;;9.18;2.20;;;;;;;;;;5027503;28;20042;-40
2024/01/23 05:34:59;;;;;;;9.40;2.20;;;;;;;;;;5027710;28;20060;-40
2024/01/23 05:37:26;;;;;;;10.00;2.17;;;;;;;;;;5030655;28;20022;-41
2024/01/23 05:39:53;;;;;;;9.18;2.13;;;;;;;;;;5030664;28;20124;-40
2024/01/23 05:42:20;;;;;;;11.68;1.92;;;;;;;;;;5026386;28;20096;-40
2024/01/23 05:44:46;;;;;;;12.02;1.83;;;;;;;;;;5028052;28;20403;-40
2024/01/23 05:47:13;;;;;;;9.55;1.83;;;;;;;;;;5030552;28;20809;-41
2024/01/23 05:49:40;;;;;;;13.65;2.00;;;;;;;;;;5034585;28;20060;-40
2024/01/23 05:52:07;;;;;;;9.68;2.15;;;;;;;;;;5034695;28;20037;-41
2024/01/23 05:54:34;;;;;;;9.52;2.20;;;;;;;;;;5032350;28;20108;-41
2024/01/23 05:57:01;;;;;;;12.45;2.28;;;;;;;;;;5032138;28;20414;-41
2024/01/23 05:59:28;;;;;;;7.60;1.92;;;;;;;;;;5034631;28;20025;-41
2024/01/23 06:01:55;;;;;;;10.73;2.00;;;;;;;;;;5033456;28;20053;-41
2024/01/23 06:04:22;;;;;;;10.65;2.42;;;;;;;;;;5034080;28;20026;-41
2024/01/23 06:06:49;;;;;;;9.93;2.00;;;;;;;;;;5031598;28;20037;-42
2024/01/23 06:09:16;;;;;;;10.95;2.00;;;;;;;;;;5032727;28;20116;-41
2024/01/23 06:11:43;;;;;;;11.30;2.38;;;;;;;;;;5034379;28;20033;-41
2024/01/23 06:14:10;;;;;;;8.48;1.95;;;;;;;;;;5034343;28;20460;-41
2024/01/23 06:16:38;;;;;;;10.90;2.50;;;;;;;;;;5033763;28;20426;-41
2024/01/23 06:19:10;;;;;;;9.98;2.30;;;;;;;;;;5030717;28;20072;-40
2024/01/23 06:21:39;;;;;;;16.90;2.25;;;;;;;;;;5032954;28;20472;-40
2024/01/23 06:24:12;;;;;;;9.35;1.98;;;;;;;;;;5034241;28;20033;-41
2024/01/23 06:26:39;;;;;;;12.60;2.15;;;;;;;;;;5031215;28;20048;-41
2024/01/23 06:29:06;;;;;;;11.15;2.10;;;;;;;;;;5034047;28;20390;-41
2024/01/23 06:31:33;;;;;;;12.35;2.33;;;;;;;;;;5029485;28;20095;-41
2024/01/23 06:34:01;;;;;;;12.15;2.80;;;;;;;;;;5031304;28;20028;-41
2024/01/23 06:36:29;;;;;;;9.45;1.90;;;;;;;;;;5033660;28;20483;-40
2024/01/23 06:38:56;;;;;;;7.20;1.73;;;;;;;;;;5033668;28;20475;-41
2024/01/23 06:41:23;;;;;;;7.80;2.10;;;;;;;;;;5033865;28;20034;-40
2024/01/23 06:43:51;;;;;;;14.05;2.33;;;;;;;;;;5029160;28;20045;-40
2024/01/23 06:46:20;;;;;;;10.23;1.73;;;;;;;;;;5033488;28;20033;-41
2024/01/23 06:48:47;;;;;;;14.57;2.75;;;;;;;;;;5033489;28;20052;-40
2024/01/23 06:51:14;;;;;;;8.52;2.25;;;;;;;;;;5033612;28;20025;-40
2024/01/23 06:53:40;;;;;;;9.68;2.20;;;;;;;;;;5030773;28;20116;-42
2024/01/23 06:56:07;;;;;;;7.90;1.70;;;;;;;;;;5029058;28;20033;-41
2024/01/23 06:58:34;;;;;;;15.88;2.70;;;;;;;;;;5033243;28;20076;-41
2024/01/23 07:01:01;;;;;;;9.90;1.80;;;;;;;;;;5032471;28;20781;-41
2024/01/23 07:03:30;;;;;;;13.77;2.30;;;;;;;;;;5033359;28;20105;-41
2024/01/23 07:05:57;;;;;;;9.73;2.13;;;;;;;;;;5032341;28;20030;-41
2024/01/23 07:08:24;;;;;;;10.73;2.10;;;;;;;;;;5029680;28;20033;-40
2024/01/23 07:10:51;;;;;;;9.70;1.92;;;;;;;;;;5033101;28;20100;-40
2024/01/23 07:13:18;;;;;;;9.55;1.80;;;;;;;;;;5033178;28;20479;-40
2024/01/23 07:15:45;;;;;;;10.50;2.30;;;;;;;;;;5033087;28;20049;-41
2024/01/23 07:18:12;;;;;;;10.10;2.17;;;;;;;;;;5031743;28;20060;-41
2024/01/23 07:20:39;;;;;;;10.95;2.13;;;;;;;;;;5030115;28;20578;-41
2024/01/23 07:23:06;;;;;;;15.88;2.78;;;;;;;;;;5032818;28;20483;-40
2024/01/23 07:25:33;;;;;;;9.85;1.88;;;;;;;;;;5032883;28;20021;-41
2024/01/23 07:28:00;;;;;;;13.13;1.90;;;;;;;;;;5020591;28;20037;-40
2024/01/23 07:30:27;;;;;;;10.80;2.30;;;;;;;;;;5030983;28;20495;-41
2024/01/23 07:32:53;;;;;;;11.18;2.10;;;;;;;;;;5030621;28;20422;-40
2024/01/23 07:35:20;;;;;;;9.65;1.92;;;;;;;;;;5030273;28;20052;-40
2024/01/23 07:37:48;;;;;;;13.07;2.50;;;;;;;;;;5023286;28;20124;-40
2024/01/23 07:40:15;;;;;;;8.90;2.28;;;;;;;;;;5032775;28;20033;-41
2024/01/23 07:42:42;;;;;;;10.27;2.58;;;;;;;;;;5030272;28;20035;-41
2024/01/23 07:45:11;;;;;;;10.73;2.78;;;;;;;;;;5030709;28;20025;-40
2024/01/23 07:47:38;;;;;;;11.55;2.22;;;;;;;;;;5032450;28;20545;-41
2024/01/23 07:50:07;;;;;;;9.90;2.00;;;;;;;;;;5032466;28;20021;-40
2024/01/23 07:52:35;;;;;;;14.15;2.63;;;;;;;;;;5032312;28;20045;-41
2024/01/23 07:55:03;;;;;;;6.38;1.73;;;;;;;;;;5026772;28;20029;-41
2024/01/23 07:57:30;;;;;;;7.75;1.77;;;;;;;;;;5031027;28;20121;-40
2024/01/23 07:59:57;;;;;;;11.82;2.60;;;;;;;;;;5032232;28;20071;-41
2024/01/23 08:02:25;;;;;;;12.80;2.50;;;;;;;;;;5032398;28;20758;-40
2024/01/23 08:04:52;;;;;;;11.48;2.10;;;;;;;;;;5032239;28;20372;-41
2024/01/23 08:07:19;;;;;;;9.45;2.38;;;;;;;;;;5028436;28;20090;-42
2024/01/23 08:09:46;;;;;;;11.45;2.10;;;;;;;;;;5031755;28;20475;-40
2024/01/23 08:12:15;;;;;;;9.93;2.17;;;;;;;;;;5031796;28;20025;-40
2024/01/23 08:14:42;;;;;;;14.50;2.20;;;;;;;;;;5029700;28;20487;-41
2024/01/23 08:17:09;;;;;;;9.82;2.15;;;;;;;;;;5022413;28;20494;-41
2024/01/23 08:19:39;;;;;;;12.00;2.50;;;;;;;;;;5027121;28;20052;-40
2024/01/23 08:22:06;;;;;;;12.77;2.55;;;;;;;;;;5031880;28;20033;-40
2024/01/23 08:24:33;;;;;;;12.45;2.15;;;;;;;;;;5032038;28;20103;-40
2024/01/23 08:27:00;;;;;;;8.55;1.90;;;;;;;;;;5029130;28;20112;-40
2024/01/23 08:29:27;;;;;;;8.52;2.10;;;;;;;;;;5031877;28;20029;-40
2024/01/23 08:31:54;;;;;;;13.65;2.60;;;;;;;;;;5027072;28;20558;-40
2024/01/23 08:34:22;;;;;;;10.75;2.55;;;;;;;;;;5028936;28;20041;-40
2024/01/23 08:36:49;;;;;;;8.60;1.80;;;;;;;;;;5031534;28;20049;-40
2024/01/23 08:39:17;;;;;;;12.80;2.35;;;;;;;;;;5031659;28;20371;-41
2024/01/23 08:41:44;;;;;;;10.90;2.40;;;;;;;;;;5031368;28;20064;-40
2024/01/23 08:44:11;;;;;;;13.25;2.53;;;;;;;;;;5027320;28;20036;-41
2024/01/23 08:46:38;;;;;;;14.18;2.95;;;;;;;;;;5031385;28;20025;-40
2024/01/23 08:49:05;;;;;;;11.93;2.20;;;;;;;;;;5013593;28;20028;-40
2024/01/23 08:51:32;;;;;;;11.32;2.35;;;;;;;;;;5031650;28;20419;-40
2024/01/23 08:53:59;;;;;;;12.65;2.33;;;;;;;;;;5030570;28;20022;-40
2024/01/23 08:56:26;;;;;;;9.50;2.25;;;;;;;;;;5027531;28;20033;-41
2024/01/23 08:58:53;;;;;;;10.65;2.72;;;;;;;;;;5031321;28;20030;-39
2024/01/23 09:01:20;;;;;;;11.65;2.55;;;;;;;;;;5031297;28;20101;-40
2024/01/23 09:03:47;;;;;;;9.65;2.22;;;;;;;;;;5031312;28;20025;-41
2024/01/23 09:06:14;;;;;;;9.40;2.40;;;;;;;;;;5029629;28;20033;-41
2024/01/23 09:08:44;;;;;;;10.98;2.88;;;;;;;;;;5025443;28;20132;-40
2024/01/23 09:11:11;;;;;;;6.90;2.17;;;;;;;;;;5030840;28;20378;-40
2024/01/23 09:13:39;;;;;;;9.05;2.70;;;;;;;;;;5031120;28;20113;-40
2024/01/23 09:16:06;;;;;;;13.63;2.85;;;;;;;;;;5030966;28;20041;-41
2024/01/23 09:18:33;;;;;;;14.00;2.78;;;;;;;;;;5028737;28;20033;-40
2024/01/23 09:21:02;;;;;;;14.90;2.60;;;;;;;;;;5028538;28;20034;-40
2024/01/23 09:23:30;;;;;;;10.15;2.45;;;;;;;;;;5030532;28;20029;-41
2024/01/23 09:25:57;;;;;;;15.52;2.70;;;;;;;;;;5030716;28;20037;-41
2024/01/23 09:28:24;;;;;;;10.75;2.40;;;;;;;;;;5030875;28;20037;-41
2024/01/23 09:30:51;;;;;;;10.90;2.28;;;;;;;;;;5027949;28;20498;-40
2024/01/23 09:33:18;;;;;;;8.55;2.10;;;;;;;;;;5029336;28;20520;-40
2024/01/23 09:35:45;;;;;;;10.82;2.50;;;;;;;;;;5030781;28;20147;-41
2024/01/23 09:38:12;;;;;;;11.90;2.30;;;;;;;;;;5030946;28;20025;-41
2024/01/23 09:40:39;;;;;;;12.55;2.65;;;;;;;;;;5030728;28;20071;-40
2024/01/23 09:43:08;;;;;;;11.57;2.75;;;;;;;;;;5027649;28;20026;-41
2024/01/23 09:45:38;;;;;;;15.15;3.00;;;;;;;;;;5029753;28;20025;-41
2024/01/23 09:48:05;;;;;;;11.63;2.97;;;;;;;;;;5028540;28;20083;-40
2024/01/23 09:50:34;;;;;;;9.57;2.20;;;;;;;;;;5030573;28;20372;-41
2024/01/23 09:53:02;;;;;;;11.63;2.60;;;;;;;;;;5027844;28;20092;-40
2024/01/23 09:55:29;;;;;;;8.80;2.40;;;;;;;;;;5026498;28;20025;-40
2024/01/23 09:57:56;;;;;;;8.88;2.28;;;;;;;;;;5030362;28;20063;-41
2024/01/23 10:00:23;;;;;;;12.93;2.38;;;;;;;;;;5028208;28;20168;-40
2024/01/23 10:02:50;;;;;;;10.27;2.78;;;;;;;;;;5030593;28;20555;-40
2024/01/23 10:05:17;;;;;;;13.82;2.80;;;;;;;;;;5030710;28;20032;-40
2024/01/23 10:07:45;;;;;;;12.63;2.70;;;;;;;;;;5025954;28;20041;-41
2024/01/23 10:10:15;;;;;;;13.13;3.00;;;;;;;;;;5012671;28;20395;-41
2024/01/23 10:12:45;;;;;;;12.43;2.42;;;;;;;;;;5027942;28;20404;-41
2024/01/23 10:15:13;;;;;;;12.82;3.50;;;;;;;;;;5030433;28;20028;-41
2024/01/23 10:17:40;;;;;;;18.85;2.63;;;;;;;;;;5030277;28;20029;-40
2024/01/23 10:20:10;;;;;;;15.57;2.90;;;;;;;;;;5025956;28;20088;-40
2024/01/23 10:22:37;;;;;;;12.68;2.28;;;;;;;;;;5013316;28;20056;-41
2024/01/23 10:25:08;;;;;;;10.75;2.67;;;;;;;;;;5012487;28;20392;-40
2024/01/23 10:27:35;;;;;;;11.80;3.03;;;;;;;;;;5030946;28;20490;-40
2024/01/23 10:30:02;;;;;;;18.33;3.85;;;;;;;;;;5029361;28;20611;-40
2024/01/23 10:32:31;;;;;;;11.32;2.90;;;;;;;;;;5027196;28;20485;-40
2024/01/23 10:34:58;;;;;;;14.30;2.92;;;;;;;;;;5033246;28;20456;-40
2024/01/23 10:37:25;;;;;;;32.95;3.78;;;;;;;;;;5034051;28;20075;-41
2024/01/23 10:39:52;;;;;;;16.02;3.25;;;;;;;;;;5026961;28;20021;-41
2024/01/23 10:42:20;;;;;;;17.35;3.92;;;;;;;;;;5022772;28;20037;-41
2024/01/23 10:44:49;;;;;;;17.70;3.65;;;;;;;;;;5019753;28;20025;-41
2024/01/23 10:47:16;;;;;;;15.10;3.22;;;;;;;;;;5030320;28;20072;-41
2024/01/23 10:49:47;;;;;;;15.40;3.05;;;;;;;;;;5037097;28;20021;-41
2024/01/23 10:52:20;;;;;;;24.52;3.20;;;;;;;;;;5034017;28;20072;-41
2024/01/23 10:54:54;;;;;;;20.02;3.70;;;;;;;;;;5031602;28;20656;-41
2024/01/23 10:57:27;;;;;;;20.73;3.95;;;;;;;;;;5032463;28;20034;-41
2024/01/23 10:59:54;;;;;;;43.08;4.57;;;;;;;;;;5016296;28;20426;-41
2024/01/23 11:02:24;;;;;;;25.13;3.78;;;;;;;;;;5034006;28;20460;-41
2024/01/23 11:04:52;;;;;;;20.63;3.75;;;;;;;;;;5034116;28;20033;-41
2024/01/23 11:07:31;;;;;;;22.27;3.25;;;;;;;;;;5030325;28;20037;-41
2024/01/23 11:10:16;;;;;;;17.63;3.15;;;;;;;;;;5033929;28;20031;-41
2024/01/23 11:12:50;;;;;;;51.78;4.82;;;;;;;;;;5033797;28;20038;-41
2024/01/23 11:15:17;;;;;;;33.22;4.72;;;;;;;;;;5033722;28;20037;-41
2024/01/23 11:17:44;;;;;;;17.98;2.80;;;;;;;;;;5033486;28;20095;-41
2024/01/23 11:20:15;;;;;;;25.45;3.10;;;;;;;;;;5029337;28;20053;-41
2024/01/23 11:22:42;;;;;;;42.83;4.43;;;;;;;;;;5032764;28;20060;-47
2024/01/23 11:25:13;;;;;;;399.45;20.95;;;;;;;;;;5012923;28;20098;-54
2024/01/23 11:27:40;;;;;;;58.75;4.88;;;;;;;;;;5040298;28;20025;-44
2024/01/23 11:30:13;;;;;;;31.73;3.60;;;;;;;;;;5032824;28;20029;-56
2024/01/23 11:32:40;;;;;;;28.02;3.88;;;;;;;;;;5035837;28;20305;-54
2024/01/23 11:35:18;;;;;;;28.35;3.00;;;;;;;;;;5043021;28;20037;-54
2024/01/23 11:37:49;;;;;;;45.28;5.45;;;;;;;;;;5042079;28;20085;-45
2024/01/23 11:40:42;;;;;;;24.52;3.75;;;;;;;;;;5040551;28;20083;-45
2024/01/23 11:43:24;;;;;;;45.53;5.05;;;;;;;;;;5008926;28;20693;-46
2024/01/23 11:45:51;;;;;;;72.43;6.75;;;;;;;;;;5012256;28;20033;-46
2024/01/23 11:48:19;;;;;;;74.82;7.28;;;;;;;;;;5025474;28;20033;-53
2024/01/23 11:50:46;;;;;;;54.42;7.15;;;;;;;;;;5033025;28;20068;-54
2024/01/23 11:53:13;;;;;;;56.22;6.60;;;;;;;;;;5032127;28;20467;-54
2024/01/23 11:55:41;;;;;;;41.50;5.32;;;;;;;;;;5028456;28;20758;-52
2024/01/23 11:58:08;;;;;;;56.63;6.82;;;;;;;;;;5033071;28;20391;-53
2024/01/23 12:00:35;;;;;;;109.97;11.68;;;;;;;;;;5033139;28;20033;-53
2024/01/23 12:03:09;;;;;;;110.07;12.40;;;;;;;;;;5033086;28;20538;-55
2024/01/23 12:05:37;;;;;;;88.82;10.38;;;;;;;;;;5032502;28;20034;-56
2024/01/23 12:08:04;;;;;;;60.25;8.27;;;;;;;;;;5028847;28;20037;-52
2024/01/23 12:10:31;;;;;;;46.50;6.15;;;;;;;;;;5032872;28;20053;-52
2024/01/23 12:12:58;;;;;;;47.47;5.78;;;;;;;;;;5015442;28;20049;-54
2024/01/23 12:15:26;;;;;;;30.48;4.53;;;;;;;;;;5032925;28;20466;-52
2024/01/23 12:17:53;;;;;;;30.05;4.18;;;;;;;;;;5031858;28;20041;-58
2024/01/23 12:20:20;;;;;;;31.67;4.07;;;;;;;;;;5028908;28;20072;-53
2024/01/23 12:22:47;;;;;;;37.35;4.38;;;;;;;;;;5032764;28;20025;-51
2024/01/23 12:25:14;;;;;;;45.90;4.40;;;;;;;;;;5028905;28;20025;-51
2024/01/23 12:27:44;;;;;;;31.98;4.28;;;;;;;;;;5028839;28;20037;-51
2024/01/23 12:30:15;;;;;;;31.23;4.13;;;;;;;;;;5025364;28;20174;-49
2024/01/23 12:32:47;;;;;;;50.72;4.50;;;;;;;;;;5025406;28;20120;-47
2024/01/23 12:35:14;;;;;;;40.28;4.78;;;;;;;;;;5029021;28;20037;-46
2024/01/23 12:37:42;;;;;;;37.05;4.47;;;;;;;;;;5030095;28;20057;-53
2024/01/23 12:40:28;;;;;;;47.33;4.20;;;;;;;;;;5031780;28;20040;-45
2024/01/23 12:42:55;;;;;;;46.95;5.45;;;;;;;;;;5025826;28;20098;-54
2024/01/23 12:45:23;;;;;;;51.78;5.90;;;;;;;;;;5029840;28;20026;-46
2024/01/23 12:47:51;;;;;;;41.80;5.78;;;;;;;;;;5031077;28;20037;-47
2024/01/23 12:50:20;;;;;;;49.13;5.18;;;;;;;;;;5027888;28;20036;-46
2024/01/23 12:52:53;;;;;;;51.20;5.75;;;;;;;;;;5028276;28;20493;-45
2024/01/23 12:55:21;;;;;;;52.22;5.88;;;;;;;;;;5029988;28;20029;-50
2024/01/23 12:57:48;;;;;;;42.30;5.00;;;;;;;;;;5026608;28;20120;-50
2024/01/23 13:00:16;;;;;;;36.95;4.72;;;;;;;;;;5031505;28;20033;-44
2024/01/23 13:02:44;;;;;;;42.47;4.72;;;;;;;;;;5008832;28;20050;-44
2024/01/23 13:05:21;;;;;;;36.10;3.90;;;;;;;;;;5030808;28;20037;-43
2024/01/23 13:07:49;;;;;;;40.25;5.15;;;;;;;;;;5027375;28;20037;-43
2024/01/23 13:10:16;;;;;;;64.43;6.15;;;;;;;;;;5031199;28;20375;-46
2024/01/23 13:12:44;;;;;;;55.63;6.30;;;;;;;;;;5031505;28;20474;-45
2024/01/23 13:15:11;;;;;;;74.90;6.63;;;;;;;;;;5038971;28;20033;-44
2024/01/23 13:17:38;;;;;;;47.15;5.75;;;;;;;;;;5027593;28;20030;-44
2024/01/23 13:20:09;;;;;;;43.35;5.22;;;;;;;;;;5027326;28;20048;-45
2024/01/23 13:22:44;;;;;;;64.63;5.93;;;;;;;;;;5027329;28;20039;-44
2024/01/23 13:25:17;;;;;;;42.53;4.85;;;;;;;;;;5030788;28;20049;-45
2024/01/23 13:27:48;;;;;;;55.10;5.05;;;;;;;;;;5035676;28;20037;-44
2024/01/23 13:30:18;;;;;;;40.92;4.95;;;;;;;;;;5039932;28;20025;-44
2024/01/23 13:32:50;;;;;;;55.45;5.20;;;;;;;;;;5049859;28;20131;-44
2024/01/23 13:35:17;;;;;;;40.70;4.78;;;;;;;;;;5050984;28;20033;-44
2024/01/23 13:37:45;;;;;;;33.78;4.35;;;;;;;;;;5051117;28;20025;-44
2024/01/23 13:40:12;;;;;;;26.38;4.20;;;;;;;;;;5050949;28;20029;-44
2024/01/23 13:42:43;;;;;;;40.47;4.78;;;;;;;;;;5025639;28;20141;-45
2024/01/23 13:45:10;;;;;;;39.85;4.57;;;;;;;;;;5030237;28;20040;-47
2024/01/23 13:47:44;;;;;;;30.60;4.97;;;;;;;;;;5030952;28;20110;-46
2024/01/23 13:50:16;;;;;;;32.67;4.13;;;;;;;;;;5031172;28;20056;-44
2024/01/23 13:52:49;;;;;;;45.08;3.83;;;;;;;;;;5031259;28;20091;-45
2024/01/23 13:55:16;;;;;;;39.75;4.47;;;;;;;;;;5026595;28;20026;-45
2024/01/23 13:57:43;;;;;;;35.53;5.25;;;;;;;;;;5029985;28;20120;-45
2024/01/23 14:00:12;;;;;;;40.22;4.10;;;;;;;;;;5030994;28;20044;-45
2024/01/23 14:02:42;;;;;;;41.63;4.85;;;;;;;;;;5031003;28;20026;-45
2024/01/23 14:05:11;;;;;;;29.92;4.25;;;;;;;;;;5030868;28;20617;-45
2024/01/23 14:07:41;;;;;;;36.38;4.80;;;;;;;;;;5036136;28;20018;-46
2024/01/23 14:10:20;;;;;;;35.67;5.47;;;;;;;;;;5033085;28;20029;-45
2024/01/23 14:12:48;;;;;;;36.53;5.35;;;;;;;;;;5045697;28;20460;-45
2024/01/23 14:15:16;;;;;;;40.63;4.57;;;;;;;;;;5034761;28;20165;-45
2024/01/23 14:17:44;;;;;;;34.13;4.72;;;;;;;;;;5033597;28;20537;-46
2024/01/23 14:20:12;;;;;;;35.53;5.28;;;;;;;;;;5045629;28;20042;-45
2024/01/23 14:22:39;;;;;;;44.67;4.97;;;;;;;;;;5042152;28;20040;-45
2024/01/23 14:25:10;;;;;;;52.72;5.70;;;;;;;;;;5043216;28;20207;-45
2024/01/23 14:27:38;;;;;;;59.65;5.68;;;;;;;;;;5038279;28;20036;-46
2024/01/23 14:30:05;;;;;;;46.58;5.35;;;;;;;;;;5033411;28;20029;-45
2024/01/23 14:32:32;;;;;;;37.72;5.25;;;;;;;;;;5033152;28;20426;-45
2024/01/23 14:34:59;;;;;;;47.05;5.18;;;;;;;;;;5033891;28;20030;-45